Mc Kenney, Virginia
Current Conditions -  °F | °C
As of 2:55 AM on Wednesday 26 Nov 2014 (Local Time) from KBKT Reporting Station
Overcast Overcast  
Wind Chill: 41°   Ceiling: 5500
Heat Index: 46°   Visibility: 7mi
Dew Point: 45°   Wind: 9mph
Humidity: 97%   Direction: 30°NNE
Pressure: 30"   Gusts: NA
Location:  37.0016°N, 77.7543°W
Report Text: KBKT 260755Z AUTO 03008KT 7SM SCT009 SCT046 OVC055 08/07 A3000 RMK AO1 P0005 T00770072
Loading
Personal Weather Stations






























Interactive Weather Map New forecast layout! Learn more

10-Day Weather Forecast

Advertisements
Track Severe Weather on mobile